KLM751 SEGU-EHAM
Flight info
| Callsign | KLM751 |
|---|---|
| Flight time | N/A |
| Altitude | 24000 |
| Route | SOL3A SOL DCT VULKY G437 ESV R564 TCO/N0502F310 DCT RNG/N0498F330 DCT UGALU DCT ELB DCT RHC DCT AMBAS DCT BEROX DCT KATOK DCT JANMA DCT HANCY/M083F330 DCT NUBUS/M083F350 DCT DUPAN DCT KOZIK DCT 31N060W 41N050W 46N040W 47N030W 48N020W 48N015W DCT OMOKO DCT GUNSO DCT GAPLI/N0473F350 DCT GAJIT DCT ENHAQ M197 REDFA |
| Aircraft | MD11/H-SDFGHIRWXY/LB1D1 |
Departure
| Time | 2026-04-21 22:29 |
|---|---|
| Airport | José Joaquín de Olmedo International Airport (SEGU) |
Arrival
| Time | N/A |
|---|---|
| Airport | Amsterdam Airport Schiphol (EHAM) |
| Time | Latitude | Longitude | Altitude | Speed | Heading |
|---|---|---|---|---|---|
| 2026-04-21 22:05 | -2.14900 | -79.88335 | 37 ft | 0 kts | 300° |
| 2026-04-21 22:21 | -2.14903 | -79.88330 | 38 ft | 2 kts | 300° |
| 2026-04-21 22:22 | -2.14910 | -79.88317 | 38 ft | 2 kts | 300° |
| 2026-04-21 22:22 | -2.14919 | -79.88306 | 39 ft | 2 kts | 321° |
| 2026-04-21 22:22 | -2.14932 | -79.88298 | 40 ft | 2 kts | 341° |
| 2026-04-21 22:22 | -2.14947 | -79.88295 | 39 ft | 2 kts | 0° |
| 2026-04-21 22:23 | -2.14961 | -79.88297 | 39 ft | 2 kts | 20° |
| 2026-04-21 22:23 | -2.14969 | -79.88301 | 38 ft | 1 kts | 31° |
| 2026-04-21 22:23 | -2.14972 | -79.88303 | 38 ft | 0 kts | 31° |
| 2026-04-21 22:25 | -2.14972 | -79.88302 | 37 ft | 0 kts | 31° |
| 2026-04-21 22:25 | -2.14955 | -79.88293 | 37 ft | 6 kts | 30° |
| 2026-04-21 22:25 | -2.14891 | -79.88256 | 37 ft | 13 kts | 30° |
| 2026-04-21 22:26 | -2.14806 | -79.88208 | 37 ft | 13 kts | 32° |
| 2026-04-21 22:26 | -2.14789 | -79.88152 | 37 ft | 6 kts | 104° |
| 2026-04-21 22:26 | -2.14815 | -79.88106 | 37 ft | 11 kts | 121° |
| 2026-04-21 22:26 | -2.14830 | -79.88032 | 37 ft | 11 kts | 55° |
| 2026-04-21 22:27 | -2.14765 | -79.87991 | 37 ft | 10 kts | 29° |
| 2026-04-21 22:27 | -2.14698 | -79.87954 | 37 ft | 11 kts | 31° |
| 2026-04-21 22:27 | -2.14649 | -79.87889 | 37 ft | 14 kts | 70° |
| 2026-04-21 22:27 | -2.14636 | -79.87788 | 37 ft | 13 kts | 119° |
| 2026-04-21 22:28 | -2.14723 | -79.87782 | 37 ft | 14 kts | 209° |
| 2026-04-21 22:28 | -2.14882 | -79.87875 | 37 ft | 52 kts | 210° |
| 2026-04-21 22:28 | -2.15404 | -79.88173 | 38 ft | 117 kts | 210° |
| 2026-04-21 22:28 | -2.16268 | -79.88668 | 38 ft | 170 kts | 210° |
| 2026-04-21 22:29 | -2.17425 | -79.89319 | 114 ft | 201 kts | 209° |
| 2026-04-21 22:29 | -2.18628 | -79.89986 | 652 ft | 194 kts | 209° |
| 2026-04-21 22:29 | -2.19752 | -79.90762 | 1041 ft | 201 kts | 227° |
| 2026-04-21 22:29 | -2.20496 | -79.91914 | 1577 ft | 197 kts | 252° |
| 2026-04-21 22:30 | -2.20803 | -79.93208 | 2057 ft | 194 kts | 259° |
| 2026-04-21 22:30 | -2.21062 | -79.94574 | 2326 ft | 200 kts | 261° |
| 2026-04-21 22:30 | -2.21268 | -79.95924 | 2726 ft | 200 kts | 261° |
| 2026-04-21 22:30 | -2.21497 | -79.97312 | 3092 ft | 202 kts | 258° |
| 2026-04-21 22:31 | -2.21816 | -79.98715 | 3250 ft | 218 kts | 252° |
| 2026-04-21 22:31 | -2.22214 | -80.00249 | 3312 ft | 240 kts | 263° |
| 2026-04-21 22:31 | -2.22146 | -80.01998 | 3428 ft | 265 kts | 285° |
| 2026-04-21 22:31 | -2.21316 | -80.03709 | 3757 ft | 282 kts | 310° |
| 2026-04-21 22:32 | -2.19808 | -80.04992 | 4285 ft | 293 kts | 333° |
| 2026-04-21 22:32 | -2.17855 | -80.05606 | 4966 ft | 299 kts | 356° |
| 2026-04-21 22:32 | -2.15802 | -80.05426 | 5742 ft | 300 kts | 16° |
| 2026-04-21 22:32 | -2.13808 | -80.04747 | 6537 ft | 304 kts | 22° |
| 2026-04-21 22:33 | -2.11834 | -80.03941 | 7292 ft | 308 kts | 22° |
| 2026-04-21 22:33 | -2.09848 | -80.03136 | 8050 ft | 311 kts | 21° |
| 2026-04-21 22:33 | -2.07807 | -80.02369 | 8833 ft | 313 kts | 20° |
| 2026-04-21 22:33 | -2.05749 | -80.01650 | 9564 ft | 316 kts | 18° |
| 2026-04-21 22:34 | -2.03631 | -80.00938 | 10240 ft | 322 kts | 18° |
| 2026-04-21 22:34 | -2.01442 | -80.00214 | 10387 ft | 346 kts | 18° |
| 2026-04-21 22:34 | -1.99059 | -79.99419 | 10503 ft | 372 kts | 18° |
| 2026-04-21 22:34 | -1.96498 | -79.98551 | 10560 ft | 397 kts | 18° |
| 2026-04-21 22:35 | -1.93832 | -79.97640 | 11081 ft | 409 kts | 18° |
| 2026-04-21 22:35 | -1.91099 | -79.96713 | 11690 ft | 418 kts | 18° |
| 2026-04-21 22:35 | -1.88331 | -79.95781 | 12437 ft | 423 kts | 18° |
| 2026-04-21 22:35 | -1.85514 | -79.94832 | 13189 ft | 427 kts | 18° |
| 2026-04-21 22:36 | -1.79804 | -79.92893 | 14550 ft | 438 kts | 18° |
| 2026-04-21 22:36 | -1.76907 | -79.91917 | 15182 ft | 443 kts | 18° |
| 2026-04-21 22:36 | -1.73969 | -79.90924 | 15851 ft | 448 kts | 17° |
| 2026-04-21 22:37 | -1.70975 | -79.89910 | 16467 ft | 453 kts | 18° |
| 2026-04-21 22:37 | -1.67976 | -79.88894 | 17076 ft | 458 kts | 18° |
| 2026-04-21 22:37 | -1.64950 | -79.87872 | 17712 ft | 462 kts | 18° |
| 2026-04-21 22:37 | -1.61903 | -79.86842 | 18344 ft | 466 kts | 18° |
| 2026-04-21 22:38 | -1.58797 | -79.85792 | 18908 ft | 471 kts | 18° |
| 2026-04-21 22:38 | -1.55687 | -79.84738 | 19492 ft | 474 kts | 18° |
| 2026-04-21 22:38 | -1.52533 | -79.83669 | 20047 ft | 478 kts | 18° |
| 2026-04-21 22:38 | -1.49371 | -79.82649 | 20588 ft | 481 kts | 15° |
| 2026-04-21 22:39 | -1.46082 | -79.81840 | 21173 ft | 484 kts | 11° |
| 2026-04-21 22:39 | -1.42747 | -79.81319 | 21717 ft | 486 kts | 6° |
| 2026-04-21 22:39 | -1.39389 | -79.81028 | 22249 ft | 489 kts | 4° |
| 2026-04-21 22:39 | -1.35967 | -79.80817 | 22767 ft | 493 kts | 4° |
| 2026-04-21 22:40 | -1.32488 | -79.80591 | 23254 ft | 498 kts | 4° |
| 2026-04-21 22:40 | -1.29054 | -79.80338 | 23735 ft | 501 kts | 5° |
| 2026-04-21 22:40 | -1.25547 | -79.80060 | 23885 ft | 500 kts | 5° |
| 2026-04-21 22:40 | -1.22064 | -79.79775 | 23894 ft | 501 kts | 5° |
| 2026-04-21 22:41 | -1.18610 | -79.79494 | 23920 ft | 503 kts | 5° |
| 2026-04-21 22:41 | -1.15100 | -79.79218 | 23926 ft | 504 kts | 4° |
| 2026-04-21 22:41 | -1.11567 | -79.78963 | 23931 ft | 505 kts | 4° |
| 2026-04-21 22:41 | -1.08070 | -79.78697 | 23933 ft | 506 kts | 5° |
| 2026-04-21 22:42 | -1.04556 | -79.78415 | 23934 ft | 505 kts | 5° |
| 2026-04-21 22:42 | -1.01034 | -79.78130 | 23935 ft | 505 kts | 5° |
| 2026-04-21 22:42 | -0.97492 | -79.77851 | 23935 ft | 505 kts | 4° |
| 2026-04-21 22:42 | -0.94010 | -79.77586 | 23938 ft | 506 kts | 4° |
| 2026-04-21 22:43 | -0.90461 | -79.77318 | 23937 ft | 505 kts | 5° |
| 2026-04-21 22:43 | -0.86951 | -79.77039 | 23935 ft | 505 kts | 5° |
| 2026-04-21 22:43 | -0.83427 | -79.76759 | 23933 ft | 504 kts | 5° |
| 2026-04-21 22:43 | -0.79915 | -79.76490 | 23935 ft | 504 kts | 4° |
| 2026-04-21 22:44 | -0.76411 | -79.76228 | 23934 ft | 503 kts | 5° |
| 2026-04-21 22:44 | -0.72907 | -79.75955 | 23935 ft | 503 kts | 5° |
| 2026-04-21 22:44 | -0.69414 | -79.75674 | 23941 ft | 503 kts | 5° |
| 2026-04-21 22:44 | -0.65921 | -79.75401 | 23939 ft | 503 kts | 4° |
| 2026-04-21 22:45 | -0.62407 | -79.75140 | 23943 ft | 503 kts | 4° |
| 2026-04-21 22:45 | -0.58936 | -79.74876 | 23946 ft | 503 kts | 4° |
| 2026-04-21 22:45 | -0.55428 | -79.74595 | 23944 ft | 503 kts | 5° |
| 2026-04-21 22:45 | -0.51928 | -79.74316 | 23950 ft | 504 kts | 4° |
| 2026-04-21 22:46 | -0.48402 | -79.74056 | 23954 ft | 504 kts | 4° |
| 2026-04-21 22:46 | -0.44917 | -79.73801 | 23952 ft | 504 kts | 4° |
| 2026-04-21 22:46 | -0.41389 | -79.73525 | 23955 ft | 504 kts | 4° |
| 2026-04-21 22:46 | -0.37872 | -79.73244 | 23953 ft | 504 kts | 4° |
| 2026-04-21 22:47 | -0.34372 | -79.72977 | 23955 ft | 504 kts | 4° |
| 2026-04-21 22:47 | -0.30868 | -79.72721 | 23956 ft | 504 kts | 4° |
| 2026-04-21 22:47 | -0.27382 | -79.72456 | 23958 ft | 504 kts | 4° |
| 2026-04-21 22:47 | -0.23849 | -79.72173 | 23956 ft | 504 kts | 4° |
| 2026-04-21 22:48 | -0.20342 | -79.71898 | 23956 ft | 505 kts | 4° |
| 2026-04-21 22:48 | -0.16852 | -79.71642 | 23957 ft | 505 kts | 4° |
| 2026-04-21 22:48 | -0.13306 | -79.71379 | 23956 ft | 505 kts | 4° |
| 2026-04-21 22:48 | -0.09814 | -79.71104 | 23955 ft | 505 kts | 4° |
| 2026-04-21 22:49 | -0.06276 | -79.70820 | 23956 ft | 505 kts | 4° |
| 2026-04-21 22:49 | -0.02779 | -79.70552 | 23954 ft | 505 kts | 4° |
| 2026-04-21 22:49 | 0.00724 | -79.70296 | 23954 ft | 505 kts | 4° |
| 2026-04-21 22:49 | 0.04261 | -79.70024 | 23952 ft | 505 kts | 4° |
| 2026-04-21 22:50 | 0.07749 | -79.69744 | 23951 ft | 505 kts | 4° |
| 2026-04-21 22:50 | 0.11277 | -79.69466 | 23951 ft | 505 kts | 4° |
| 2026-04-21 22:50 | 0.14797 | -79.69206 | 23950 ft | 506 kts | 4° |
| 2026-04-21 22:50 | 0.18338 | -79.68943 | 23950 ft | 506 kts | 4° |
| 2026-04-21 22:51 | 0.21863 | -79.68662 | 23948 ft | 506 kts | 4° |
| 2026-04-21 22:51 | 0.25388 | -79.68379 | 23948 ft | 506 kts | 4° |
| 2026-04-21 22:51 | 0.28913 | -79.68113 | 23947 ft | 506 kts | 4° |
| 2026-04-21 22:51 | 0.32411 | -79.67857 | 23948 ft | 506 kts | 4° |
| 2026-04-21 22:52 | 0.35943 | -79.67584 | 23950 ft | 506 kts | 4° |
| 2026-04-21 22:52 | 0.39446 | -79.67300 | 23949 ft | 506 kts | 4° |
| 2026-04-21 22:52 | 0.42996 | -79.67024 | 23951 ft | 505 kts | 4° |
| 2026-04-21 22:52 | 0.46483 | -79.66767 | 23951 ft | 505 kts | 3° |
| 2026-04-21 22:53 | 0.50017 | -79.66502 | 23955 ft | 506 kts | 4° |
| 2026-04-21 22:53 | 0.53557 | -79.66219 | 24369 ft | 508 kts | 4° |
| 2026-04-21 22:53 | 0.57064 | -79.65940 | 24820 ft | 512 kts | 4° |
| 2026-04-21 22:53 | 0.60664 | -79.65672 | 25256 ft | 516 kts | 4° |
| 2026-04-21 22:54 | 0.64242 | -79.65408 | 25705 ft | 520 kts | 4° |
| 2026-04-21 22:54 | 0.67858 | -79.65131 | 26304 ft | 520 kts | 4° |
| 2026-04-21 22:54 | 0.71511 | -79.64845 | 26942 ft | 519 kts | 4° |
| 2026-04-21 22:54 | 0.75075 | -79.64563 | 27546 ft | 519 kts | 4° |
| 2026-04-21 22:55 | 0.78687 | -79.64286 | 28200 ft | 518 kts | 4° |
| 2026-04-21 22:55 | 0.82276 | -79.64016 | 28828 ft | 516 kts | 4° |
| 2026-04-21 22:55 | 0.85896 | -79.63734 | 29453 ft | 515 kts | 5° |
| 2026-04-21 22:55 | 0.89423 | -79.63451 | 30086 ft | 512 kts | 6° |
| 2026-04-21 22:56 | 0.92969 | -79.62954 | 30728 ft | 508 kts | 13° |
| 2026-04-21 22:56 | 0.96352 | -79.62010 | 31344 ft | 503 kts | 22° |
| 2026-04-21 22:56 | 0.99571 | -79.60609 | 31850 ft | 500 kts | 30° |
| 2026-04-21 22:56 | 1.02536 | -79.58824 | 31862 ft | 497 kts | 37° |
| 2026-04-21 22:57 | 1.07499 | -79.54107 | 31905 ft | 487 kts | 54° |
| 2026-04-21 22:57 | 1.11437 | -79.48599 | 31901 ft | 488 kts | 54° |
| 2026-04-21 22:58 | 1.15868 | -79.43407 | 31899 ft | 490 kts | 48° |
| 2026-04-21 22:58 | 1.20602 | -79.38471 | 31894 ft | 490 kts | 48° |
| 2026-04-21 22:59 | 1.25303 | -79.33529 | 31899 ft | 490 kts | 48° |
| 2026-04-21 22:59 | 1.30017 | -79.28569 | 31897 ft | 490 kts | 48° |
| 2026-04-21 23:00 | 1.34736 | -79.23630 | 31896 ft | 490 kts | 48° |
| 2026-04-21 23:00 | 1.39447 | -79.18708 | 31894 ft | 491 kts | 48° |
| 2026-04-21 23:01 | 1.44159 | -79.13776 | 31893 ft | 491 kts | 48° |
| 2026-04-21 23:01 | 1.48870 | -79.08845 | 31887 ft | 489 kts | 48° |
| 2026-04-21 23:02 | 1.53588 | -79.03925 | 31888 ft | 489 kts | 48° |
| 2026-04-21 23:02 | 1.58275 | -78.99023 | 31890 ft | 490 kts | 48° |
| 2026-04-21 23:03 | 1.62993 | -78.94102 | 31889 ft | 490 kts | 48° |
| 2026-04-21 23:03 | 1.67715 | -78.89168 | 31890 ft | 490 kts | 48° |
| 2026-04-21 23:04 | 1.72421 | -78.84257 | 31889 ft | 490 kts | 48° |
| 2026-04-21 23:04 | 1.77117 | -78.79349 | 31891 ft | 490 kts | 48° |
| 2026-04-21 23:05 | 1.82011 | -78.74573 | 31893 ft | 491 kts | 44° |
| 2026-04-21 23:05 | 1.87266 | -78.70222 | 31903 ft | 493 kts | 40° |
| 2026-04-21 23:06 | 1.92671 | -78.65960 | 31900 ft | 493 kts | 40° |
| 2026-04-21 23:06 | 1.98049 | -78.61684 | 31901 ft | 493 kts | 40° |
| 2026-04-21 23:07 | 2.03394 | -78.57413 | 31906 ft | 493 kts | 41° |
| 2026-04-21 23:07 | 2.08746 | -78.53134 | 31907 ft | 494 kts | 40° |
| 2026-04-21 23:08 | 2.14124 | -78.48840 | 31906 ft | 494 kts | 40° |
| 2026-04-21 23:08 | 2.19498 | -78.44556 | 31903 ft | 494 kts | 40° |
| 2026-04-21 23:09 | 2.24900 | -78.40257 | 31908 ft | 493 kts | 40° |
| 2026-04-21 23:09 | 2.30246 | -78.36003 | 31909 ft | 493 kts | 40° |
| 2026-04-21 23:10 | 2.35649 | -78.31703 | 31914 ft | 493 kts | 40° |
| 2026-04-21 23:10 | 2.41025 | -78.27433 | 31915 ft | 494 kts | 40° |
| 2026-04-21 23:11 | 2.46397 | -78.23154 | 31908 ft | 494 kts | 41° |
| 2026-04-21 23:11 | 2.51792 | -78.18863 | 31913 ft | 494 kts | 40° |
| 2026-04-21 23:12 | 2.57159 | -78.14587 | 31909 ft | 494 kts | 40° |
| 2026-04-21 23:12 | 2.62547 | -78.10297 | 31907 ft | 493 kts | 40° |
| 2026-04-21 23:13 | 2.67904 | -78.06027 | 31906 ft | 493 kts | 40° |
| 2026-04-21 23:13 | 2.73263 | -78.01758 | 31906 ft | 493 kts | 40° |
| 2026-04-21 23:14 | 2.78658 | -77.97462 | 31906 ft | 493 kts | 41° |
| 2026-04-21 23:14 | 2.83998 | -77.93202 | 31905 ft | 493 kts | 40° |
| 2026-04-21 23:15 | 2.89367 | -77.88934 | 31907 ft | 493 kts | 40° |
| 2026-04-21 23:15 | 2.94735 | -77.84650 | 31909 ft | 494 kts | 40° |
| 2026-04-21 23:16 | 3.00121 | -77.80366 | 31912 ft | 493 kts | 40° |
| 2026-04-21 23:16 | 3.05483 | -77.76086 | 31917 ft | 493 kts | 40° |
| 2026-04-21 23:17 | 3.10870 | -77.71806 | 31916 ft | 493 kts | 40° |
| 2026-04-21 23:17 | 3.16225 | -77.67529 | 31920 ft | 493 kts | 40° |
| 2026-04-21 23:18 | 3.21607 | -77.63247 | 31922 ft | 494 kts | 40° |
| 2026-04-21 23:18 | 3.27000 | -77.58933 | 31922 ft | 493 kts | 40° |
| 2026-04-21 23:19 | 3.32346 | -77.54672 | 31925 ft | 494 kts | 40° |
| 2026-04-21 23:19 | 3.37740 | -77.50365 | 31922 ft | 494 kts | 40° |
| 2026-04-21 23:20 | 3.43135 | -77.46059 | 31923 ft | 494 kts | 40° |
| 2026-04-21 23:20 | 3.48487 | -77.41791 | 31925 ft | 494 kts | 40° |
| 2026-04-21 23:21 | 3.53880 | -77.37485 | 31921 ft | 494 kts | 40° |
| 2026-04-21 23:21 | 3.59231 | -77.33216 | 31921 ft | 494 kts | 40° |
| 2026-04-21 23:22 | 3.64645 | -77.28894 | 31923 ft | 494 kts | 40° |
| 2026-04-21 23:22 | 3.70050 | -77.24590 | 31922 ft | 495 kts | 40° |
| 2026-04-21 23:23 | 3.75422 | -77.20294 | 31920 ft | 495 kts | 40° |
| 2026-04-21 23:23 | 3.80831 | -77.15989 | 31919 ft | 495 kts | 40° |
| 2026-04-21 23:24 | 3.86219 | -77.11671 | 31913 ft | 495 kts | 40° |
| 2026-04-21 23:24 | 3.91591 | -77.07400 | 31912 ft | 494 kts | 40° |
| 2026-04-21 23:25 | 3.96961 | -77.03095 | 31911 ft | 495 kts | 40° |
| 2026-04-21 23:25 | 4.02360 | -76.98768 | 31910 ft | 496 kts | 40° |
| 2026-04-21 23:26 | 4.07764 | -76.94451 | 31913 ft | 497 kts | 40° |
| 2026-04-21 23:26 | 4.13168 | -76.90124 | 31915 ft | 496 kts | 40° |
| 2026-04-21 23:27 | 4.18581 | -76.85805 | 31920 ft | 496 kts | 40° |
| 2026-04-21 23:27 | 4.23964 | -76.81496 | 31924 ft | 496 kts | 40° |
| 2026-04-21 23:28 | 4.29378 | -76.77168 | 31935 ft | 496 kts | 40° |
| 2026-04-21 23:28 | 4.34753 | -76.72872 | 31946 ft | 497 kts | 40° |
| 2026-04-21 23:29 | 4.40158 | -76.68549 | 31987 ft | 497 kts | 40° |
| 2026-04-21 23:29 | 4.45602 | -76.64198 | 32025 ft | 497 kts | 40° |
| 2026-04-21 23:30 | 4.50996 | -76.59876 | 32047 ft | 497 kts | 41° |
| 2026-04-21 23:30 | 4.56404 | -76.55540 | 32098 ft | 497 kts | 40° |
| 2026-04-21 23:31 | 4.61817 | -76.51201 | 32124 ft | 497 kts | 41° |
| 2026-04-21 23:31 | 4.67225 | -76.46864 | 32171 ft | 497 kts | 40° |
| 2026-04-21 23:32 | 4.72620 | -76.42553 | 32194 ft | 497 kts | 40° |
| 2026-04-21 23:32 | 4.78025 | -76.38211 | 32218 ft | 496 kts | 40° |
| 2026-04-21 23:33 | 4.83427 | -76.33886 | 32244 ft | 496 kts | 41° |
| 2026-04-21 23:33 | 4.88841 | -76.29539 | 32264 ft | 496 kts | 40° |
| 2026-04-21 23:34 | 4.94238 | -76.25226 | 32299 ft | 496 kts | 40° |
| 2026-04-21 23:34 | 4.99650 | -76.20879 | 32334 ft | 497 kts | 40° |
| 2026-04-21 23:35 | 5.05030 | -76.16579 | 32328 ft | 496 kts | 40° |
| 2026-04-21 23:35 | 5.10444 | -76.12229 | 32308 ft | 496 kts | 40° |
| 2026-04-21 23:36 | 5.15867 | -76.07885 | 32295 ft | 496 kts | 40° |
| 2026-04-21 23:36 | 5.21256 | -76.03545 | 32298 ft | 497 kts | 40° |
| 2026-04-21 23:37 | 5.26671 | -75.99195 | 32313 ft | 498 kts | 40° |
| 2026-04-21 23:37 | 5.32075 | -75.94854 | 32329 ft | 498 kts | 40° |
| 2026-04-21 23:38 | 5.37499 | -75.90494 | 32343 ft | 499 kts | 40° |
| 2026-04-21 23:38 | 5.42913 | -75.86145 | 32356 ft | 499 kts | 40° |
| 2026-04-21 23:39 | 5.48321 | -75.81797 | 32367 ft | 500 kts | 40° |
| 2026-04-21 23:39 | 5.53777 | -75.77415 | 32374 ft | 500 kts | 40° |
| 2026-04-21 23:40 | 5.59215 | -75.73045 | 32372 ft | 501 kts | 40° |
| 2026-04-21 23:40 | 5.64663 | -75.68669 | 32361 ft | 500 kts | 40° |
| 2026-04-21 23:41 | 5.70097 | -75.64299 | 32351 ft | 500 kts | 40° |
| 2026-04-21 23:41 | 5.75538 | -75.59939 | 32345 ft | 501 kts | 40° |
| 2026-04-21 23:42 | 5.80989 | -75.55553 | 32328 ft | 501 kts | 40° |
| 2026-04-21 23:42 | 5.86423 | -75.51168 | 32314 ft | 501 kts | 40° |
| 2026-04-21 23:43 | 5.91868 | -75.46789 | 32314 ft | 501 kts | 40° |
| 2026-04-21 23:43 | 5.97495 | -75.42615 | 32312 ft | 501 kts | 32° |
| 2026-04-21 23:44 | 6.03744 | -75.39552 | 32324 ft | 503 kts | 22° |
| 2026-04-21 23:44 | 6.10309 | -75.37063 | 32317 ft | 504 kts | 21° |
| 2026-04-21 23:45 | 6.20119 | -75.33240 | 32308 ft | 504 kts | 22° |
| 2026-04-21 23:46 | 6.26640 | -75.30656 | 32305 ft | 503 kts | 22° |
| 2026-04-21 23:46 | 6.33156 | -75.28085 | 32294 ft | 504 kts | 22° |
| 2026-04-21 23:47 | 6.39704 | -75.25498 | 32267 ft | 504 kts | 22° |
| 2026-04-21 23:47 | 6.46234 | -75.22935 | 32248 ft | 504 kts | 22° |
| 2026-04-21 23:48 | 6.52796 | -75.20362 | 32219 ft | 504 kts | 22° |
| 2026-04-21 23:48 | 6.59357 | -75.17786 | 32206 ft | 504 kts | 22° |
| 2026-04-21 23:49 | 6.65913 | -75.15212 | 32210 ft | 505 kts | 22° |
| 2026-04-21 23:49 | 6.72443 | -75.12648 | 32217 ft | 505 kts | 22° |
| 2026-04-21 23:50 | 6.79005 | -75.10075 | 32216 ft | 504 kts | 22° |
| 2026-04-21 23:50 | 6.85572 | -75.07492 | 32212 ft | 505 kts | 22° |
| 2026-04-21 23:51 | 6.92127 | -75.04909 | 32198 ft | 505 kts | 21° |
| 2026-04-21 23:51 | 6.98686 | -75.02331 | 32182 ft | 505 kts | 21° |
| 2026-04-21 23:52 | 7.05236 | -74.99747 | 32163 ft | 505 kts | 21° |
| 2026-04-21 23:52 | 7.11824 | -74.97158 | 32136 ft | 505 kts | 22° |
| 2026-04-21 23:53 | 7.18409 | -74.94559 | 32119 ft | 505 kts | 21° |
| 2026-04-21 23:53 | 7.24967 | -74.91986 | 32084 ft | 505 kts | 22° |
| 2026-04-21 23:54 | 7.31498 | -74.89404 | 32058 ft | 506 kts | 22° |
| 2026-04-21 23:54 | 7.38087 | -74.86820 | 32036 ft | 506 kts | 22° |
| 2026-04-21 23:55 | 7.44691 | -74.84209 | 32021 ft | 507 kts | 22° |
| 2026-04-21 23:55 | 7.51255 | -74.81635 | 31993 ft | 507 kts | 21° |
| 2026-04-21 23:56 | 7.57858 | -74.79030 | 31972 ft | 508 kts | 22° |
| 2026-04-21 23:56 | 7.64446 | -74.76421 | 31964 ft | 508 kts | 23° |
| 2026-04-21 23:57 | 7.70848 | -74.73425 | 31961 ft | 508 kts | 29° |
| 2026-04-21 23:57 | 7.77025 | -74.69925 | 31954 ft | 507 kts | 31° |
| 2026-04-21 23:58 | 7.83171 | -74.66384 | 31952 ft | 507 kts | 30° |
| 2026-04-21 23:58 | 7.89313 | -74.62887 | 31952 ft | 509 kts | 30° |